createdAt,value
2023-04-20T00:01:48.323Z,35.30
2023-04-20T00:04:15.734Z,35.70
2023-04-20T00:06:43.847Z,35.70
2023-04-20T00:09:15.281Z,35.90
2023-04-20T00:11:42.231Z,35.70
2023-04-20T00:14:08.837Z,35.50
2023-04-20T00:16:35.626Z,35.30
2023-04-20T00:19:06.463Z,35.70
2023-04-20T00:21:33.387Z,35.50
2023-04-20T00:24:00.183Z,35.90
2023-04-20T00:26:26.851Z,35.60
2023-04-20T00:28:53.843Z,35.50
2023-04-20T00:31:20.876Z,35.60
2023-04-20T00:33:48.214Z,35.70
2023-04-20T00:36:14.878Z,35.80
2023-04-20T00:38:41.596Z,35.90
2023-04-20T00:41:08.216Z,35.90
2023-04-20T00:43:34.796Z,36.20
2023-04-20T00:46:03.472Z,36.10
2023-04-20T00:48:30.134Z,36.40
2023-04-20T00:50:56.861Z,36.70
2023-04-20T00:53:23.417Z,37.00
2023-04-20T00:55:51.072Z,36.90
2023-04-20T00:58:17.688Z,36.80
2023-04-20T01:00:44.590Z,36.50
2023-04-20T01:03:11.377Z,36.60
2023-04-20T01:05:40.300Z,36.80
2023-04-20T01:08:06.849Z,36.90
2023-04-20T01:10:36.102Z,36.80
2023-04-20T01:13:03.649Z,37.60
2023-04-20T01:15:37.068Z,37.00
2023-04-20T01:18:03.817Z,37.40
2023-04-20T01:20:30.536Z,37.50
2023-04-20T01:22:57.196Z,37.70
2023-04-20T01:25:23.786Z,37.80
2023-04-20T01:27:53.164Z,37.60
2023-04-20T01:30:20.154Z,37.60
2023-04-20T01:32:46.842Z,37.50
2023-04-20T01:35:17.054Z,37.60
2023-04-20T01:37:45.953Z,37.70
2023-04-20T01:40:13.976Z,37.20
2023-04-20T01:42:42.917Z,37.00
2023-04-20T01:45:09.894Z,36.70
2023-04-20T01:47:37.137Z,36.40
2023-04-20T01:50:07.308Z,36.50
2023-04-20T01:52:33.981Z,36.20
2023-04-20T01:55:00.637Z,36.20
2023-04-20T01:57:29.613Z,36.30
2023-04-20T01:59:58.490Z,36.50
2023-04-20T02:02:26.257Z,36.60
2023-04-20T02:04:55.853Z,36.60
2023-04-20T02:07:25.071Z,36.60
2023-04-20T02:09:51.651Z,36.50
2023-04-20T02:12:18.937Z,36.60
2023-04-20T02:14:47.985Z,36.50
2023-04-20T02:17:14.674Z,36.70
2023-04-20T02:19:41.394Z,36.50
2023-04-20T02:22:07.972Z,36.60
2023-04-20T02:24:34.714Z,36.50
2023-04-20T02:27:03.836Z,36.50
2023-04-20T02:29:31.915Z,36.70
2023-04-20T02:32:01.728Z,36.70
2023-04-20T02:34:28.300Z,36.30
2023-04-20T02:36:56.842Z,36.20
2023-04-20T02:39:26.014Z,36.20
2023-04-20T02:41:54.297Z,36.30
2023-04-20T02:44:21.251Z,36.20
2023-04-20T02:46:48.807Z,36.40
2023-04-20T02:49:16.515Z,36.30
2023-04-20T02:51:49.235Z,36.30
2023-04-20T02:54:17.378Z,36.30
2023-04-20T02:56:44.506Z,36.40
2023-04-20T02:59:11.173Z,36.50
2023-04-20T03:01:54.104Z,36.60
2023-04-20T03:04:25.591Z,36.60
2023-04-20T03:07:01.172Z,36.50
2023-04-20T03:09:30.455Z,36.60
2023-04-20T03:12:06.559Z,36.60
2023-04-20T03:14:51.642Z,36.70
2023-04-20T03:17:22.705Z,36.70
2023-04-20T03:19:50.812Z,36.80
2023-04-20T03:22:19.220Z,37.00
2023-04-20T03:24:53.475Z,37.10
2023-04-20T03:27:38.385Z,38.00
2023-04-20T03:30:10.217Z,37.40
2023-04-20T03:32:38.203Z,37.40
2023-04-20T03:35:06.184Z,37.60
2023-04-20T03:37:35.038Z,37.70
2023-04-20T03:40:01.753Z,37.80
2023-04-20T03:42:28.354Z,38.00
2023-04-20T03:44:57.515Z,38.00
2023-04-20T03:47:24.248Z,38.00
2023-04-20T03:49:50.984Z,38.20
2023-04-20T03:52:20.273Z,38.20
2023-04-20T03:54:46.968Z,38.30
2023-04-20T03:57:15.802Z,38.40
2023-04-20T03:59:43.073Z,38.50
2023-04-20T04:02:13.338Z,38.60
2023-04-20T04:04:43.404Z,38.70
2023-04-20T04:07:10.116Z,38.70
2023-04-20T04:09:39.516Z,38.80
2023-04-20T04:12:10.151Z,38.90
2023-04-20T04:14:37.822Z,39.20
2023-04-20T04:17:04.882Z,39.20
2023-04-20T04:19:36.682Z,39.30
2023-04-20T04:22:06.004Z,39.50
2023-04-20T04:24:39.999Z,39.40
2023-04-20T04:27:09.439Z,39.50
2023-04-20T04:29:41.758Z,39.50
2023-04-20T04:32:13.364Z,39.60
2023-04-20T04:34:40.514Z,39.90
2023-04-20T04:37:09.439Z,40.00
2023-04-20T04:39:44.296Z,40.10
2023-04-20T04:42:20.235Z,40.20
2023-04-20T04:44:52.294Z,40.20
2023-04-20T04:47:29.603Z,40.30
2023-04-20T04:49:56.362Z,41.20
2023-04-20T04:52:23.198Z,40.50
2023-04-20T04:54:49.758Z,40.70
2023-04-20T04:57:16.542Z,40.90
2023-04-20T04:59:43.106Z,40.90
2023-04-20T05:02:09.823Z,41.00
2023-04-20T05:04:36.596Z,40.90
2023-04-20T05:07:03.304Z,40.90
2023-04-20T05:09:33.344Z,41.00
2023-04-20T05:12:00.861Z,40.90
2023-04-20T05:14:31.580Z,41.00
2023-04-20T05:16:59.095Z,41.20
2023-04-20T05:19:25.841Z,40.90
2023-04-20T05:21:52.412Z,41.20
2023-04-20T05:24:19.328Z,41.40
2023-04-20T05:26:46.500Z,41.40
2023-04-20T05:29:14.139Z,41.40
2023-04-20T05:31:40.783Z,41.50
2023-04-20T05:34:07.470Z,41.50
2023-04-20T05:36:34.149Z,41.60
2023-04-20T05:39:00.823Z,41.70
2023-04-20T05:41:29.694Z,41.80
2023-04-20T05:43:56.813Z,41.90
2023-04-20T05:46:23.660Z,41.90
2023-04-20T05:48:53.018Z,42.00
2023-04-20T05:51:22.393Z,42.00
2023-04-20T05:53:49.103Z,42.30
2023-04-20T05:56:15.813Z,42.20
2023-04-20T05:58:43.989Z,42.30
2023-04-20T06:01:11.441Z,42.40
2023-04-20T06:03:38.213Z,42.60
2023-04-20T06:06:05.660Z,42.80
2023-04-20T06:08:32.294Z,42.90
2023-04-20T06:10:59.043Z,43.10
2023-04-20T06:13:26.152Z,43.30
2023-04-20T06:15:53.892Z,43.30
2023-04-20T06:18:20.660Z,43.40
2023-04-20T06:20:47.297Z,43.60
2023-04-20T06:23:14.113Z,43.80
2023-04-20T06:25:40.867Z,43.90
2023-04-20T06:28:07.710Z,44.00
2023-04-20T06:30:36.891Z,44.00
2023-04-20T06:33:03.796Z,44.10
2023-04-20T06:35:30.378Z,44.20
2023-04-20T06:37:57.454Z,44.30
2023-04-20T06:40:27.259Z,44.40
2023-04-20T06:42:54.042Z,44.80
2023-04-20T06:45:21.059Z,44.70
2023-04-20T06:47:47.787Z,44.80
2023-04-20T06:50:14.480Z,45.00
2023-04-20T06:52:41.461Z,45.10
2023-04-20T06:55:08.727Z,45.10
2023-04-20T06:57:35.422Z,45.10
2023-04-20T07:00:02.109Z,45.20
2023-04-20T07:02:28.772Z,45.30
2023-04-20T07:05:01.321Z,45.40
2023-04-20T07:07:27.953Z,45.90
2023-04-20T07:09:56.964Z,45.30
2023-04-20T07:12:23.537Z,45.30
2023-04-20T07:14:50.327Z,45.50
2023-04-20T07:17:16.944Z,45.70
2023-04-20T07:19:43.510Z,45.80
2023-04-20T07:22:10.166Z,45.70
2023-04-20T07:24:39.099Z,45.80
2023-04-20T07:27:07.843Z,45.80
2023-04-20T07:29:34.426Z,45.90
2023-04-20T07:32:01.074Z,46.10
2023-04-20T07:34:27.659Z,46.20
2023-04-20T07:36:54.268Z,46.40
2023-04-20T07:39:21.169Z,46.60
2023-04-20T07:41:47.727Z,46.50
2023-04-20T07:44:14.336Z,46.50
2023-04-20T07:46:45.900Z,46.60
2023-04-20T07:49:12.463Z,46.60
2023-04-20T07:51:39.092Z,46.70
2023-04-20T07:54:05.830Z,46.80
2023-04-20T07:56:32.932Z,46.80
2023-04-20T07:59:01.963Z,46.90
2023-04-20T08:01:28.542Z,46.90
2023-04-20T08:03:55.709Z,47.00
2023-04-20T08:06:22.835Z,47.10
2023-04-20T08:08:49.414Z,47.10
2023-04-20T08:11:16.257Z,47.10
2023-04-20T08:13:42.851Z,47.20
2023-04-20T08:16:09.518Z,47.30
2023-04-20T08:18:38.427Z,47.40
2023-04-20T08:21:05.123Z,47.50
2023-04-20T08:23:31.701Z,47.60
2023-04-20T08:25:58.477Z,47.60
2023-04-20T08:30:58.775Z,47.60
2023-04-20T08:33:25.705Z,47.60
2023-04-20T08:35:55.407Z,48.30
2023-04-20T08:38:32.885Z,47.80
2023-04-20T08:41:00.247Z,47.80
2023-04-20T08:43:26.872Z,47.90
2023-04-20T08:46:01.489Z,48.10
2023-04-20T08:48:36.224Z,48.60
2023-04-20T08:51:08.149Z,48.70
2023-04-20T08:53:34.819Z,47.90
2023-04-20T08:56:01.345Z,47.90
2023-04-20T08:58:32.700Z,47.90
2023-04-20T09:01:00.929Z,48.20
2023-04-20T09:03:35.100Z,47.70
2023-04-20T09:06:02.027Z,47.80
2023-04-20T09:08:40.334Z,47.40
2023-04-20T09:11:07.932Z,47.60
2023-04-20T09:13:35.106Z,47.10
2023-04-20T09:16:19.950Z,47.10
2023-04-20T09:18:57.571Z,47.40
2023-04-20T09:21:27.965Z,47.60
2023-04-20T09:24:06.483Z,47.30
2023-04-20T09:26:34.754Z,47.30
2023-04-20T09:29:02.705Z,47.00
2023-04-20T09:31:29.392Z,46.90
2023-04-20T09:34:01.083Z,46.90
2023-04-20T09:36:38.508Z,46.90
2023-04-20T09:39:13.176Z,47.30
2023-04-20T09:41:45.233Z,47.20
2023-04-20T09:44:13.464Z,46.90
2023-04-20T09:46:41.537Z,47.00
2023-04-20T09:49:10.121Z,47.00
2023-04-20T09:51:39.095Z,47.20
2023-04-20T09:54:06.594Z,47.30
2023-04-20T09:56:34.740Z,47.20
2023-04-20T09:59:02.312Z,47.10
2023-04-20T10:01:36.095Z,47.20
2023-04-20T10:04:06.421Z,47.30
2023-04-20T10:06:35.656Z,47.00
2023-04-20T10:09:04.762Z,46.70
2023-04-20T10:11:41.213Z,46.80
2023-04-20T10:14:22.899Z,46.80
2023-04-20T10:17:03.101Z,47.10
2023-04-20T10:19:43.845Z,47.30
2023-04-20T10:22:12.265Z,47.60
2023-04-20T10:24:39.492Z,47.20
2023-04-20T10:27:20.602Z,47.60
2023-04-20T10:29:49.474Z,48.70
2023-04-20T10:32:26.993Z,48.30
2023-04-20T10:35:13.726Z,49.60
2023-04-20T10:37:50.670Z,49.60
2023-04-20T10:40:24.543Z,50.80
2023-04-20T10:42:53.655Z,50.00
2023-04-20T10:45:21.796Z,50.70
2023-04-20T10:47:48.480Z,50.80
2023-04-20T10:50:16.386Z,51.70
2023-04-20T10:52:46.161Z,52.30
2023-04-20T10:55:26.039Z,52.90
2023-04-20T10:57:53.726Z,54.40
2023-04-20T11:00:27.090Z,53.20
2023-04-20T11:02:56.502Z,53.90
2023-04-20T11:05:25.726Z,53.90
2023-04-20T11:07:56.994Z,53.30
2023-04-20T11:10:41.228Z,52.90
2023-04-20T11:13:19.667Z,52.20
2023-04-20T11:15:46.302Z,51.60
2023-04-20T11:18:12.957Z,50.20
2023-04-20T11:20:55.818Z,50.00
2023-04-20T11:23:28.246Z,49.80
2023-04-20T11:25:56.686Z,49.40
2023-04-20T11:28:24.072Z,48.80
2023-04-20T11:30:51.019Z,49.10
2023-04-20T11:33:31.442Z,48.50
2023-04-20T11:36:02.070Z,48.90
2023-04-20T11:38:28.632Z,48.50
2023-04-20T11:40:55.853Z,48.40
2023-04-20T11:43:22.652Z,48.30
2023-04-20T11:45:49.218Z,48.20
2023-04-20T11:48:19.584Z,48.50
2023-04-20T11:50:46.234Z,48.50
2023-04-20T11:53:14.676Z,48.50
2023-04-20T11:55:44.252Z,49.10
2023-04-20T11:58:10.878Z,49.20
2023-04-20T12:00:37.470Z,49.50
2023-04-20T12:03:04.202Z,49.60
2023-04-20T12:05:30.892Z,50.30
2023-04-20T12:07:57.525Z,50.50
2023-04-20T12:10:24.190Z,51.70
2023-04-20T12:12:53.636Z,52.80
2023-04-20T12:15:20.305Z,52.50
2023-04-20T12:17:47.090Z,53.00
2023-04-20T12:20:14.190Z,52.20
2023-04-20T12:22:41.185Z,51.50
2023-04-20T12:25:08.187Z,50.70
2023-04-20T12:27:37.289Z,50.30
2023-04-20T12:30:04.283Z,50.90
2023-04-20T12:32:30.931Z,51.00
2023-04-20T12:35:00.168Z,51.00
2023-04-20T12:37:27.197Z,51.40
2023-04-20T12:39:53.802Z,50.80
2023-04-20T12:42:20.736Z,51.30
2023-04-20T12:44:47.310Z,51.60
2023-04-20T12:47:14.053Z,51.70
2023-04-20T12:49:40.793Z,51.60
2023-04-20T12:52:08.254Z,52.10
2023-04-20T12:54:35.033Z,52.00
2023-04-20T12:57:02.372Z,51.60
2023-04-20T12:59:31.867Z,51.00
2023-04-20T13:01:58.544Z,50.00
2023-04-20T13:04:25.486Z,49.30
2023-04-20T13:06:52.401Z,48.10
2023-04-20T13:09:19.084Z,47.60
2023-04-20T13:11:46.516Z,46.80
2023-04-20T13:14:13.084Z,46.70
2023-04-20T13:16:39.799Z,46.20
2023-04-20T13:19:06.488Z,46.60
2023-04-20T13:21:33.212Z,46.40
2023-04-20T13:23:59.880Z,46.80
2023-04-20T13:26:26.587Z,47.10
2023-04-20T13:28:54.047Z,47.50
2023-04-20T13:31:20.742Z,47.30
2023-04-20T13:33:47.448Z,47.00
2023-04-20T13:36:14.190Z,45.90
2023-04-20T13:38:40.841Z,46.40
2023-04-20T13:41:07.557Z,47.40
2023-04-20T13:43:34.154Z,48.20
2023-04-20T13:46:00.849Z,47.70
2023-04-20T13:48:27.413Z,47.00
2023-04-20T13:50:55.214Z,46.00
2023-04-20T13:53:21.965Z,44.00
2023-04-20T13:55:49.846Z,41.60
2023-04-20T13:58:16.520Z,39.20
2023-04-20T14:00:43.145Z,38.20
2023-04-20T14:03:10.480Z,37.40
2023-04-20T14:05:38.764Z,37.00
2023-04-20T14:08:06.793Z,36.50
2023-04-20T14:10:33.905Z,38.10
2023-04-20T14:13:01.489Z,39.10
2023-04-20T14:15:28.180Z,39.70
2023-04-20T14:17:54.795Z,40.20
2023-04-20T14:20:21.627Z,40.10
2023-04-20T14:22:50.595Z,38.30
2023-04-20T14:25:17.345Z,37.60
2023-04-20T14:27:43.998Z,35.80
2023-04-20T14:30:11.441Z,34.30
2023-04-20T14:32:38.350Z,33.20
2023-04-20T14:35:05.725Z,31.90
2023-04-20T14:37:32.944Z,30.40
2023-04-20T14:39:59.516Z,30.40
2023-04-20T14:42:26.067Z,29.70
2023-04-20T14:44:53.637Z,29.70
2023-04-20T14:47:22.467Z,29.10
2023-04-20T14:49:49.076Z,28.20
2023-04-20T14:52:20.365Z,26.90
2023-04-20T14:54:54.869Z,26.50
2023-04-20T14:57:24.672Z,25.90
2023-04-20T14:59:53.781Z,25.90
2023-04-20T15:02:25.947Z,26.10
2023-04-20T15:04:59.585Z,26.40
2023-04-20T15:07:29.498Z,26.90
2023-04-20T15:09:58.452Z,27.80
2023-04-20T15:12:27.399Z,28.70
2023-04-20T15:14:53.951Z,29.20
2023-04-20T15:17:20.600Z,29.80
2023-04-20T15:19:49.824Z,30.10
2023-04-20T15:22:19.065Z,29.30
2023-04-20T15:24:46.053Z,28.50
2023-04-20T15:27:20.202Z,27.50
2023-04-20T15:29:49.345Z,26.90
2023-04-20T15:32:16.940Z,26.20
2023-04-20T15:34:43.545Z,26.30
2023-04-20T15:37:10.306Z,26.50
2023-04-20T15:39:41.408Z,26.90
2023-04-20T15:42:08.116Z,27.20
2023-04-20T15:44:34.735Z,27.70
2023-04-20T15:47:06.824Z,28.60
2023-04-20T15:49:36.873Z,29.70
2023-04-20T15:52:04.364Z,29.20
2023-04-20T15:54:36.739Z,28.10
2023-04-20T15:57:04.774Z,27.70
2023-04-20T15:59:32.086Z,27.30
2023-04-20T16:01:59.029Z,27.30
2023-04-20T16:04:25.738Z,27.70
2023-04-20T16:06:54.976Z,28.00
2023-04-20T16:09:23.920Z,28.30
2023-04-20T16:11:50.849Z,28.60
2023-04-20T16:14:17.712Z,28.60
2023-04-20T16:16:44.591Z,29.30
2023-04-20T16:19:14.518Z,29.70
2023-04-20T16:21:41.185Z,29.70
2023-04-20T16:24:07.801Z,29.60
2023-04-20T16:26:36.867Z,29.40
2023-04-20T16:29:03.543Z,29.10
2023-04-20T16:31:30.792Z,28.60
2023-04-20T16:33:58.623Z,27.80
2023-04-20T16:36:26.571Z,27.40
2023-04-20T16:38:53.257Z,26.80
2023-04-20T16:41:20.038Z,26.50
2023-04-20T16:43:46.638Z,26.10
2023-04-20T16:46:16.109Z,25.80
2023-04-20T16:48:42.820Z,25.70
2023-04-20T16:51:09.607Z,25.60
2023-04-20T16:53:38.890Z,25.50
2023-04-20T16:56:05.628Z,25.10
2023-04-20T16:58:32.181Z,24.90
2023-04-20T17:00:58.831Z,24.60
2023-04-20T17:03:25.791Z,24.60
2023-04-20T17:05:54.638Z,24.40
2023-04-20T17:08:21.474Z,24.20
2023-04-20T17:10:48.105Z,24.30
2023-04-20T17:13:17.356Z,24.30
2023-04-20T17:15:46.552Z,24.20
2023-04-20T17:18:13.126Z,23.90
2023-04-20T17:20:43.167Z,23.60
2023-04-20T17:23:09.863Z,23.70
2023-04-20T17:25:36.440Z,23.60
2023-04-20T17:28:08.047Z,23.70
2023-04-20T17:30:34.800Z,23.40
2023-04-20T17:33:01.512Z,23.60
2023-04-20T17:35:28.146Z,23.50
2023-04-20T17:37:54.765Z,23.50
2023-04-20T17:40:21.435Z,23.60
2023-04-20T17:42:48.053Z,23.50
2023-04-20T17:45:14.630Z,23.50
2023-04-20T17:47:41.329Z,23.80
2023-04-20T17:50:08.675Z,23.80
2023-04-20T17:52:35.289Z,23.60
2023-04-20T17:55:01.930Z,23.70
2023-04-20T17:57:29.351Z,23.90
2023-04-20T17:59:55.997Z,23.90
2023-04-20T18:02:24.240Z,24.00
2023-04-20T18:04:51.259Z,24.10
2023-04-20T18:07:18.596Z,24.40
2023-04-20T18:09:45.229Z,24.60
2023-04-20T18:12:11.820Z,24.60
2023-04-20T18:14:39.819Z,25.00
2023-04-20T18:17:07.540Z,25.20
2023-04-20T18:19:34.124Z,25.50
2023-04-20T18:22:00.885Z,26.10
2023-04-20T18:24:27.681Z,26.70
2023-04-20T18:26:54.249Z,27.00
2023-04-20T18:29:21.007Z,27.30
2023-04-20T18:31:49.801Z,27.70
2023-04-20T18:34:16.792Z,28.10
2023-04-20T18:36:45.887Z,28.50
2023-04-20T18:39:12.670Z,29.40
2023-04-20T18:41:39.298Z,29.20
2023-04-20T18:44:07.691Z,29.60
2023-04-20T18:46:34.420Z,30.00
2023-04-20T18:49:03.740Z,30.60
2023-04-20T18:51:31.934Z,30.80
2023-04-20T18:53:58.500Z,31.60
2023-04-20T18:56:25.262Z,32.00
2023-04-20T18:58:58.198Z,32.50
2023-04-20T19:01:26.151Z,33.00
2023-04-20T19:03:53.087Z,33.60
2023-04-20T19:06:20.067Z,33.90
2023-04-20T19:08:50.447Z,34.30
2023-04-20T19:11:19.443Z,34.60
2023-04-20T19:13:46.016Z,35.00
2023-04-20T19:16:15.618Z,35.10
2023-04-20T19:18:46.155Z,35.60
2023-04-20T19:21:12.925Z,35.70
2023-04-20T19:23:40.721Z,36.00
2023-04-20T19:26:08.018Z,36.30
2023-04-20T19:28:36.425Z,36.60
2023-04-20T19:31:07.750Z,36.70
2023-04-20T19:33:35.680Z,36.80
2023-04-20T19:36:06.375Z,37.10
2023-04-20T19:38:34.624Z,37.40
2023-04-20T19:41:01.509Z,37.60
2023-04-20T19:43:28.220Z,37.80
2023-04-20T19:45:58.874Z,38.00
2023-04-20T19:48:25.829Z,38.50
2023-04-20T19:50:52.638Z,38.30
2023-04-20T19:53:19.258Z,38.70
2023-04-20T19:55:46.440Z,38.90
2023-04-20T19:58:13.294Z,39.00
2023-04-20T20:00:40.090Z,39.30
2023-04-20T20:03:12.265Z,39.50
2023-04-20T20:05:38.941Z,39.80
2023-04-20T20:08:06.293Z,38.70
2023-04-20T20:10:32.871Z,39.40
2023-04-20T20:12:59.501Z,39.90
2023-04-20T20:15:28.816Z,40.20
2023-04-20T20:17:59.246Z,40.50
2023-04-20T20:20:30.494Z,40.40
2023-04-20T20:23:02.008Z,40.90
2023-04-20T20:25:31.707Z,41.00
2023-04-20T20:28:00.842Z,41.40
2023-04-20T20:30:27.484Z,41.50
2023-04-20T20:32:54.297Z,41.80
2023-04-20T20:35:22.182Z,42.10
2023-04-20T20:37:48.737Z,42.30
2023-04-20T20:40:17.528Z,42.80
2023-04-20T20:42:44.898Z,43.20
2023-04-20T20:45:12.384Z,43.50
2023-04-20T20:47:43.933Z,44.10
2023-04-20T20:50:12.050Z,43.90
2023-04-20T20:52:39.283Z,44.30
2023-04-20T20:55:09.422Z,44.50
2023-04-20T20:57:36.174Z,45.10
2023-04-20T21:00:08.148Z,44.90
2023-04-20T21:02:34.914Z,45.70
2023-04-20T21:05:01.888Z,45.80
2023-04-20T21:07:28.490Z,46.00
2023-04-20T21:09:55.301Z,46.30
2023-04-20T21:12:21.872Z,46.20
2023-04-20T21:14:51.138Z,46.60
2023-04-20T21:17:18.522Z,47.10
2023-04-20T21:19:47.686Z,47.30
2023-04-20T21:22:14.357Z,47.70
2023-04-20T21:24:41.066Z,47.80
2023-04-20T21:27:09.728Z,48.30
2023-04-20T21:29:36.373Z,48.60
2023-04-20T21:32:03.172Z,49.10
2023-04-20T21:34:32.313Z,49.30
2023-04-20T21:37:03.892Z,49.50
2023-04-20T21:39:36.433Z,49.70
2023-04-20T21:42:03.296Z,49.40
2023-04-20T21:44:29.992Z,49.80
2023-04-20T21:46:56.963Z,50.10
2023-04-20T21:49:23.514Z,50.60
2023-04-20T21:51:50.091Z,51.00
2023-04-20T21:54:16.623Z,50.90
2023-04-20T21:56:43.245Z,51.00
2023-04-20T21:59:09.847Z,51.40
2023-04-20T22:01:37.401Z,51.70
2023-04-20T22:04:04.583Z,51.50
2023-04-20T22:06:34.028Z,51.50
2023-04-20T22:09:00.773Z,51.30
2023-04-20T22:11:27.819Z,51.40
2023-04-20T22:13:57.017Z,51.70
2023-04-20T22:16:24.089Z,52.40
2023-04-20T22:18:50.906Z,52.10
2023-04-20T22:21:22.997Z,52.20
2023-04-20T22:23:49.678Z,52.30
2023-04-20T22:26:16.657Z,52.40
2023-04-20T22:28:43.248Z,52.60
2023-04-20T22:31:09.895Z,52.90
2023-04-20T22:33:36.874Z,53.00
2023-04-20T22:36:03.650Z,53.10
2023-04-20T22:38:30.490Z,53.30
2023-04-20T22:40:59.609Z,53.40
2023-04-20T22:43:26.226Z,53.80
2023-04-20T22:45:54.111Z,53.70
2023-04-20T22:48:21.523Z,54.00
2023-04-20T22:50:48.116Z,54.20
2023-04-20T22:53:14.789Z,54.30
2023-04-20T22:55:41.725Z,54.50
2023-04-20T22:58:08.345Z,54.40
2023-04-20T23:00:35.048Z,54.40
2023-04-20T23:03:01.732Z,54.50
2023-04-20T23:05:30.847Z,54.50
2023-04-20T23:07:57.382Z,54.60
2023-04-20T23:10:28.346Z,54.90
2023-04-20T23:12:55.279Z,55.40
2023-04-20T23:15:22.096Z,55.20
2023-04-20T23:17:51.039Z,55.20
2023-04-20T23:20:18.499Z,55.30
2023-04-20T23:22:47.631Z,55.20
2023-04-20T23:25:14.261Z,55.20
2023-04-20T23:27:43.376Z,55.50
2023-04-20T23:30:10.411Z,55.60
2023-04-20T23:32:39.642Z,55.50
2023-04-20T23:35:07.485Z,56.10
2023-04-20T23:37:34.049Z,55.90
2023-04-20T23:40:00.741Z,55.80
2023-04-20T23:42:29.451Z,56.00
2023-04-20T23:44:58.530Z,56.10
2023-04-20T23:47:25.151Z,56.20
2023-04-20T23:49:53.496Z,56.20
2023-04-20T23:52:20.066Z,56.40
2023-04-20T23:54:46.637Z,56.40
2023-04-20T23:57:13.268Z,56.60
2023-04-20T23:59:39.797Z,56.60
